createdAt,value
2022-11-02T00:00:23.476Z,7.00
2022-11-02T00:02:51.553Z,7.00
2022-11-02T00:05:49.910Z,7.10
2022-11-02T00:08:18.237Z,7.10
2022-11-02T00:10:46.493Z,7.00
2022-11-02T00:13:20.719Z,7.00
2022-11-02T00:15:48.574Z,7.00
2022-11-02T00:18:17.318Z,7.00
2022-11-02T00:20:45.728Z,7.00
2022-11-02T00:23:14.715Z,7.00
2022-11-02T00:25:48.696Z,7.00
2022-11-02T00:28:16.158Z,7.10
2022-11-02T00:30:43.856Z,7.00
2022-11-02T00:33:11.718Z,7.00
2022-11-02T00:35:39.079Z,7.00
2022-11-02T00:38:07.366Z,6.90
2022-11-02T00:40:34.476Z,7.00
2022-11-02T00:43:03.349Z,7.10
2022-11-02T00:45:30.479Z,7.10
2022-11-02T00:47:58.334Z,7.20
2022-11-02T00:50:25.540Z,7.20
2022-11-02T00:52:52.515Z,7.30
2022-11-02T00:55:21.300Z,7.40
2022-11-02T00:57:48.565Z,7.40
2022-11-02T01:00:20.448Z,7.40
2022-11-02T01:02:47.583Z,7.40
2022-11-02T01:05:16.059Z,7.40
2022-11-02T01:07:43.487Z,7.30
2022-11-02T01:10:11.855Z,7.10
2022-11-02T01:12:40.283Z,7.00
2022-11-02T01:15:10.289Z,7.10
2022-11-02T01:17:38.798Z,7.10
2022-11-02T01:20:08.148Z,7.10
2022-11-02T01:22:35.837Z,7.20
2022-11-02T01:25:04.314Z,7.20
2022-11-02T01:27:31.586Z,7.20
2022-11-02T01:29:59.605Z,7.20
2022-11-02T01:32:30.513Z,7.20
2022-11-02T01:34:57.782Z,7.20
2022-11-02T01:37:25.634Z,7.10
2022-11-02T01:39:52.494Z,7.10
2022-11-02T01:42:25.453Z,7.20
2022-11-02T01:44:53.413Z,7.30
2022-11-02T01:47:35.455Z,7.30
2022-11-02T01:50:11.912Z,7.30
2022-11-02T01:52:39.865Z,7.30
2022-11-02T01:55:23.268Z,7.20
2022-11-02T01:58:05.023Z,7.10
2022-11-02T02:00:34.017Z,7.00
2022-11-02T02:03:08.211Z,7.00
2022-11-02T02:05:57.829Z,7.10
2022-11-02T02:08:27.760Z,7.40
2022-11-02T02:10:57.726Z,7.80
2022-11-02T02:13:28.234Z,8.30
2022-11-02T02:16:19.080Z,8.60
2022-11-02T02:18:57.211Z,8.90
2022-11-02T02:21:59.316Z,9.00
2022-11-02T02:24:48.750Z,9.20
2022-11-02T02:27:42.212Z,9.40
2022-11-02T02:30:10.625Z,9.50
2022-11-02T02:33:01.141Z,9.40
2022-11-02T02:35:38.680Z,9.50
2022-11-02T02:38:38.789Z,9.50
2022-11-02T02:41:18.031Z,9.50
2022-11-02T02:43:56.039Z,9.50
2022-11-02T02:46:42.628Z,9.50
2022-11-02T02:49:15.701Z,9.50
2022-11-02T02:51:45.867Z,9.60
2022-11-02T02:54:20.269Z,9.60
2022-11-02T02:56:54.896Z,9.60
2022-11-02T02:59:27.446Z,9.70
2022-11-02T03:01:58.494Z,9.70
2022-11-02T03:04:26.831Z,9.70
2022-11-02T03:06:59.251Z,9.70
2022-11-02T03:09:35.093Z,9.70
2022-11-02T03:12:23.644Z,9.70
2022-11-02T03:15:13.377Z,9.80
2022-11-02T03:18:08.762Z,9.80
2022-11-02T03:20:57.710Z,9.80
2022-11-02T03:23:54.514Z,9.90
2022-11-02T03:26:45.824Z,9.80
2022-11-02T03:29:24.864Z,9.90
2022-11-02T03:32:00.487Z,9.90
2022-11-02T03:34:43.826Z,10.00
2022-11-02T03:37:14.344Z,10.00
2022-11-02T03:39:46.630Z,10.00
2022-11-02T03:42:21.000Z,10.00
2022-11-02T03:45:01.084Z,10.00
2022-11-02T03:47:33.107Z,10.00
2022-11-02T03:50:06.998Z,10.00
2022-11-02T03:52:39.875Z,10.00
2022-11-02T03:55:09.493Z,10.00
2022-11-02T03:57:51.627Z,10.00
2022-11-02T04:00:26.526Z,9.90
2022-11-02T04:03:08.756Z,10.00
2022-11-02T04:05:41.673Z,10.00
2022-11-02T04:08:31.203Z,10.00
2022-11-02T04:11:25.670Z,10.00
2022-11-02T04:14:15.463Z,10.00
2022-11-02T04:16:43.703Z,10.00
2022-11-02T04:19:29.857Z,10.10
2022-11-02T04:22:24.261Z,10.10
2022-11-02T04:25:15.821Z,10.00
2022-11-02T04:27:50.886Z,10.10
2022-11-02T04:30:23.185Z,10.10
2022-11-02T04:33:11.113Z,10.10
2022-11-02T04:35:45.703Z,10.10
2022-11-02T04:38:36.610Z,10.10
2022-11-02T04:41:23.070Z,10.10
2022-11-02T04:43:54.149Z,10.10
2022-11-02T04:46:24.910Z,10.20
2022-11-02T04:48:53.167Z,10.20
2022-11-02T04:51:23.172Z,10.20
2022-11-02T04:53:54.061Z,10.20
2022-11-02T04:56:22.999Z,10.20
2022-11-02T04:58:51.869Z,10.20
2022-11-02T05:01:20.639Z,10.20
2022-11-02T05:03:49.956Z,10.30
2022-11-02T05:06:21.085Z,10.30
2022-11-02T05:08:50.904Z,10.30
2022-11-02T05:11:19.325Z,10.40
2022-11-02T05:13:47.884Z,10.40
2022-11-02T05:16:18.030Z,10.40
2022-11-02T05:18:46.654Z,10.50
2022-11-02T05:21:17.298Z,10.50
2022-11-02T05:23:44.643Z,10.50
2022-11-02T05:26:13.024Z,10.60
2022-11-02T05:28:44.988Z,10.60
2022-11-02T05:31:12.647Z,10.60
2022-11-02T05:33:41.349Z,10.60
2022-11-02T05:36:14.795Z,10.60
2022-11-02T05:38:45.627Z,10.60
2022-11-02T05:41:13.696Z,10.60
2022-11-02T05:43:42.991Z,10.60
2022-11-02T05:46:14.926Z,10.60
2022-11-02T05:48:43.060Z,10.60
2022-11-02T05:51:11.104Z,10.60
2022-11-02T05:53:38.954Z,10.70
2022-11-02T05:56:08.148Z,10.70
2022-11-02T05:58:37.277Z,10.80
2022-11-02T06:01:07.012Z,10.80
2022-11-02T06:03:36.107Z,10.80
2022-11-02T06:06:06.849Z,10.90
2022-11-02T06:08:38.625Z,10.90
2022-11-02T06:11:07.728Z,10.90
2022-11-02T06:13:35.146Z,10.90
2022-11-02T06:16:05.110Z,10.90
2022-11-02T06:18:33.679Z,11.00
2022-11-02T06:21:04.343Z,11.00
2022-11-02T06:23:32.009Z,10.90
2022-11-02T06:26:00.965Z,10.90
2022-11-02T06:28:29.439Z,10.80
2022-11-02T06:30:59.226Z,10.80
2022-11-02T06:33:27.185Z,10.80
2022-11-02T06:35:55.453Z,10.80
2022-11-02T06:38:23.320Z,10.80
2022-11-02T06:41:06.826Z,10.90
2022-11-02T06:43:38.257Z,11.00
2022-11-02T06:46:06.693Z,11.10
2022-11-02T06:48:35.596Z,11.20
2022-11-02T06:51:05.207Z,11.30
2022-11-02T06:53:33.543Z,11.40
2022-11-02T06:56:00.835Z,11.40
2022-11-02T06:58:29.684Z,11.50
2022-11-02T07:00:59.771Z,11.50
2022-11-02T07:03:28.902Z,11.60
2022-11-02T07:05:57.147Z,11.70
2022-11-02T07:08:27.363Z,11.70
2022-11-02T07:10:58.063Z,11.70
2022-11-02T07:13:26.092Z,11.80
2022-11-02T07:15:55.143Z,11.90
2022-11-02T07:18:29.020Z,11.90
2022-11-02T07:20:59.228Z,12.00
2022-11-02T07:23:28.434Z,12.10
2022-11-02T07:25:57.401Z,12.20
2022-11-02T07:28:24.645Z,12.40
2022-11-02T07:30:58.581Z,12.50
2022-11-02T07:33:29.047Z,12.70
2022-11-02T07:36:08.981Z,12.80
2022-11-02T07:38:44.133Z,12.80
2022-11-02T07:41:13.134Z,12.90
2022-11-02T07:43:43.240Z,12.90
2022-11-02T07:46:52.479Z,13.00
2022-11-02T07:49:21.642Z,13.20
2022-11-02T07:51:52.245Z,13.20
2022-11-02T07:54:21.570Z,13.50
2022-11-02T07:56:49.366Z,13.80
2022-11-02T07:59:17.767Z,13.90
2022-11-02T08:01:46.549Z,13.80
2022-11-02T08:04:18.191Z,13.50
2022-11-02T08:06:48.794Z,13.40
2022-11-02T08:15:07.581Z,13.50
2022-11-02T08:17:39.497Z,13.40
2022-11-02T08:20:08.387Z,13.30
2022-11-02T08:22:42.418Z,13.30
2022-11-02T08:25:10.606Z,13.30
2022-11-02T08:27:38.837Z,13.20
2022-11-02T08:30:07.202Z,13.10
2022-11-02T08:36:22.127Z,12.90
2022-11-02T08:38:50.039Z,12.90
2022-11-02T08:41:19.916Z,13.00
2022-11-02T08:43:48.719Z,13.10
2022-11-02T08:46:17.314Z,13.10
2022-11-02T08:48:45.489Z,13.10
2022-11-02T08:51:14.035Z,13.20
2022-11-02T08:53:43.737Z,13.20
2022-11-02T08:56:23.018Z,13.20
2022-11-02T08:58:51.452Z,13.40
2022-11-02T09:01:19.729Z,13.50
2022-11-02T09:03:49.011Z,13.70
2022-11-02T09:06:18.877Z,14.00
2022-11-02T09:08:46.911Z,14.00
2022-11-02T09:11:15.193Z,14.10
2022-11-02T09:13:43.364Z,14.10
2022-11-02T09:16:11.520Z,13.90
2022-11-02T09:18:39.339Z,13.80
2022-11-02T09:21:10.297Z,13.60
2022-11-02T09:23:38.354Z,13.40
2022-11-02T09:26:08.276Z,13.30
2022-11-02T09:28:36.602Z,13.30
2022-11-02T09:31:07.439Z,13.30
2022-11-02T09:33:38.619Z,13.50
2022-11-02T09:36:07.126Z,13.80
2022-11-02T09:38:39.918Z,14.10
2022-11-02T09:41:52.905Z,14.20
2022-11-02T09:44:42.218Z,14.10
2022-11-02T09:48:10.594Z,14.20
2022-11-02T09:50:04.132Z,14.40
2022-11-02T09:52:39.787Z,14.60
2022-11-02T09:55:17.787Z,14.70
2022-11-02T09:57:49.320Z,14.90
2022-11-02T10:00:19.220Z,14.90
2022-11-02T10:03:17.556Z,14.90
2022-11-02T10:06:06.006Z,14.70
2022-11-02T10:09:06.110Z,14.70
2022-11-02T10:11:56.019Z,14.70
2022-11-02T10:14:38.022Z,14.80
2022-11-02T10:17:17.748Z,14.70
2022-11-02T10:19:53.680Z,14.70
2022-11-02T10:22:24.109Z,14.60
2022-11-02T10:24:54.735Z,14.50
2022-11-02T10:27:32.224Z,14.60
2022-11-02T10:30:20.212Z,14.80
2022-11-02T10:32:54.390Z,14.90
2022-11-02T10:38:51.546Z,14.50
2022-11-02T10:41:39.988Z,14.40
2022-11-02T10:44:38.101Z,14.30
2022-11-02T10:47:11.043Z,14.30
2022-11-02T10:50:09.450Z,14.20
2022-11-02T10:52:43.724Z,14.30
2022-11-02T10:55:41.435Z,14.40
2022-11-02T10:58:15.489Z,14.40
2022-11-02T11:00:44.931Z,14.40
2022-11-02T11:03:16.963Z,14.40
2022-11-02T11:06:04.302Z,14.40
2022-11-02T11:08:49.820Z,14.40
2022-11-02T11:11:29.207Z,14.40
2022-11-02T11:20:32.970Z,14.50
2022-11-02T11:23:18.681Z,14.50
2022-11-02T11:26:06.458Z,14.50
2022-11-02T11:28:53.846Z,14.50
2022-11-02T11:31:22.960Z,14.50
2022-11-02T11:33:58.168Z,14.60
2022-11-02T11:36:34.232Z,14.80
2022-11-02T11:39:30.109Z,14.90
2022-11-02T11:41:59.753Z,14.90
2022-11-02T11:44:28.104Z,14.60
2022-11-02T11:46:58.687Z,14.40
2022-11-02T11:49:41.939Z,14.30
2022-11-02T11:52:32.686Z,14.30
2022-11-02T11:55:21.038Z,14.40
2022-11-02T11:58:20.242Z,14.40
2022-11-02T12:01:15.965Z,14.30
2022-11-02T12:04:03.063Z,14.40
2022-11-02T12:06:59.647Z,14.50
2022-11-02T12:09:48.165Z,14.40
2022-11-02T12:12:36.678Z,14.20
2022-11-02T12:15:25.416Z,14.10
2022-11-02T12:18:17.769Z,14.10
2022-11-02T12:21:22.160Z,14.10
2022-11-02T12:24:29.122Z,14.10
2022-11-02T12:27:38.142Z,14.20
2022-11-02T12:30:16.953Z,14.10
2022-11-02T12:33:01.950Z,14.20
2022-11-02T12:35:41.268Z,14.40
2022-11-02T12:38:51.520Z,14.40
2022-11-02T12:41:51.408Z,14.20
2022-11-02T12:44:55.175Z,14.20
2022-11-02T12:47:48.219Z,14.30
2022-11-02T12:50:33.651Z,14.20
2022-11-02T12:53:30.889Z,14.30
2022-11-02T12:56:03.915Z,14.20
2022-11-02T12:58:35.758Z,14.20
2022-11-02T13:01:31.083Z,14.10
2022-11-02T13:04:10.008Z,14.20
2022-11-02T13:06:43.440Z,14.30
2022-11-02T13:09:25.702Z,14.30
2022-11-02T13:12:06.016Z,14.40
2022-11-02T13:14:46.160Z,14.40
2022-11-02T13:17:49.997Z,14.40
2022-11-02T13:20:39.932Z,14.20
2022-11-02T13:23:48.019Z,14.10
2022-11-02T13:26:29.164Z,14.20
2022-11-02T13:29:33.262Z,14.20
2022-11-02T13:32:33.856Z,14.20
2022-11-02T13:35:11.504Z,14.30
2022-11-02T13:37:49.391Z,14.20
2022-11-02T13:40:36.449Z,14.40
2022-11-02T13:43:18.272Z,14.50
2022-11-02T13:46:21.892Z,14.80
2022-11-02T13:48:58.354Z,15.00
2022-11-02T13:51:49.871Z,15.10
2022-11-02T13:54:26.100Z,15.70
2022-11-02T13:56:58.201Z,16.20
2022-11-02T13:59:43.011Z,16.60
2022-11-02T14:02:16.978Z,17.10
2022-11-02T14:04:46.042Z,17.00
2022-11-02T14:07:40.654Z,17.00
2022-11-02T14:10:17.796Z,17.00
2022-11-02T14:13:03.059Z,16.90
2022-11-02T14:15:31.053Z,16.70
2022-11-02T14:18:07.220Z,16.20
2022-11-02T14:20:39.111Z,15.60
2022-11-02T14:23:14.805Z,15.50
2022-11-02T14:25:49.982Z,15.40
2022-11-02T14:28:55.387Z,15.40
2022-11-02T14:31:46.011Z,15.30
2022-11-02T14:34:26.073Z,14.90
2022-11-02T14:37:06.299Z,14.70
2022-11-02T14:40:05.121Z,14.30
2022-11-02T14:43:14.942Z,14.10
2022-11-02T14:46:09.675Z,13.80
2022-11-02T14:48:57.138Z,13.70
2022-11-02T14:51:32.415Z,13.70
2022-11-02T14:54:08.185Z,13.70
2022-11-02T14:57:02.897Z,13.60
2022-11-02T14:59:40.423Z,13.40
2022-11-02T15:02:29.113Z,13.30
2022-11-02T15:05:03.079Z,13.20
2022-11-02T15:07:49.138Z,13.10
2022-11-02T15:10:18.952Z,12.90
2022-11-02T15:12:48.417Z,12.80
2022-11-02T15:15:35.281Z,12.70
2022-11-02T15:18:30.317Z,12.60
2022-11-02T15:21:22.166Z,12.30
2022-11-02T15:24:19.299Z,12.20
2022-11-02T15:27:00.887Z,12.00
2022-11-02T15:29:43.522Z,11.90
2022-11-02T15:32:22.981Z,11.70
2022-11-02T15:34:53.019Z,11.60
2022-11-02T15:37:37.355Z,11.50
2022-11-02T15:40:35.508Z,11.40
2022-11-02T15:43:47.124Z,11.20
2022-11-02T15:46:44.675Z,11.00
2022-11-02T15:49:41.895Z,10.80
2022-11-02T15:52:46.435Z,10.70
2022-11-02T15:56:01.359Z,10.60
2022-11-02T15:59:00.120Z,10.30
2022-11-02T16:01:30.344Z,10.10
2022-11-02T16:04:07.323Z,10.00
2022-11-02T16:06:44.035Z,9.90
2022-11-02T16:09:33.786Z,9.70
2022-11-02T16:12:24.786Z,9.60
2022-11-02T16:15:22.306Z,9.40
2022-11-02T16:17:50.790Z,9.20
2022-11-02T16:20:33.734Z,9.10
2022-11-02T16:23:06.417Z,9.10
2022-11-02T16:25:46.369Z,9.10
2022-11-02T16:28:37.312Z,9.00
2022-11-02T16:31:31.212Z,8.90
2022-11-02T16:34:12.412Z,8.70
2022-11-02T16:36:40.752Z,8.60
2022-11-02T16:39:22.690Z,8.50
2022-11-02T16:41:57.251Z,8.40
2022-11-02T16:44:32.468Z,8.30
2022-11-02T16:47:11.336Z,8.20
2022-11-02T16:49:53.470Z,8.10
2022-11-02T16:52:30.840Z,7.90
2022-11-02T16:54:59.349Z,7.80
2022-11-02T16:57:30.714Z,7.70
2022-11-02T17:00:18.912Z,7.60
2022-11-02T17:02:47.688Z,7.60
2022-11-02T17:05:26.888Z,7.50
2022-11-02T17:08:15.464Z,7.40
2022-11-02T17:10:44.640Z,7.40
2022-11-02T17:13:21.587Z,7.40
2022-11-02T17:15:53.316Z,7.40
2022-11-02T17:18:28.401Z,7.30
2022-11-02T17:21:14.189Z,7.30
2022-11-02T17:23:47.607Z,7.20
2022-11-02T17:26:25.714Z,7.20
2022-11-02T17:29:04.180Z,7.20
2022-11-02T17:31:41.222Z,7.20
2022-11-02T17:34:19.085Z,7.10
2022-11-02T17:36:49.136Z,7.10
2022-11-02T17:39:19.198Z,7.10
2022-11-02T17:42:11.967Z,7.20
2022-11-02T17:44:41.397Z,7.10
2022-11-02T17:47:18.528Z,7.00
2022-11-02T17:49:46.868Z,6.90
2022-11-02T17:52:18.421Z,6.80
2022-11-02T17:54:46.245Z,6.70
2022-11-02T17:57:15.133Z,6.60
2022-11-02T17:59:43.270Z,6.50
2022-11-02T18:02:15.971Z,6.40
2022-11-02T18:04:44.869Z,6.40
2022-11-02T18:07:12.759Z,6.40
2022-11-02T18:09:41.029Z,6.40
2022-11-02T18:12:17.907Z,6.30
2022-11-02T18:14:46.240Z,6.30
2022-11-02T18:17:14.259Z,6.40
2022-11-02T18:19:42.379Z,6.50
2022-11-02T18:22:12.256Z,6.60
2022-11-02T18:24:40.206Z,6.50
2022-11-02T18:27:08.162Z,6.40
2022-11-02T18:29:36.047Z,6.30
2022-11-02T18:32:04.198Z,6.40
2022-11-02T18:34:31.005Z,6.50
2022-11-02T18:36:58.949Z,6.50
2022-11-02T18:39:27.135Z,6.40
2022-11-02T18:41:54.977Z,6.10
2022-11-02T18:44:22.867Z,6.00
2022-11-02T18:46:51.014Z,6.10
2022-11-02T18:49:18.940Z,6.10
2022-11-02T18:51:47.633Z,6.00
2022-11-02T18:54:15.699Z,5.90
2022-11-02T18:56:44.000Z,5.80
2022-11-02T18:59:11.957Z,5.70
2022-11-02T19:01:40.605Z,5.70
2022-11-02T19:04:13.127Z,5.70
2022-11-02T19:07:03.146Z,5.80
2022-11-02T19:09:32.968Z,5.70
2022-11-02T19:12:13.075Z,5.60
2022-11-02T19:14:43.171Z,5.50
2022-11-02T19:17:13.192Z,5.50
2022-11-02T19:19:43.145Z,5.40
2022-11-02T19:22:22.126Z,5.50
2022-11-02T19:24:50.595Z,5.50
2022-11-02T19:27:24.240Z,5.50
2022-11-02T19:29:52.766Z,5.40
2022-11-02T19:32:20.896Z,5.40
2022-11-02T19:34:47.744Z,5.50
2022-11-02T19:37:16.149Z,5.60
2022-11-02T19:39:45.128Z,5.70
2022-11-02T19:42:13.552Z,5.70
2022-11-02T19:44:42.945Z,5.70
2022-11-02T19:47:11.152Z,5.70
2022-11-02T19:49:39.178Z,5.60
2022-11-02T19:52:07.453Z,5.60
2022-11-02T19:54:35.436Z,5.50
2022-11-02T19:57:03.541Z,5.30
2022-11-02T19:59:31.869Z,5.20
2022-11-02T20:02:00.326Z,5.20
2022-11-02T20:04:29.861Z,5.20
2022-11-02T20:06:58.770Z,5.20
2022-11-02T20:09:26.735Z,5.20
2022-11-02T20:11:54.680Z,5.10
2022-11-02T20:14:22.486Z,5.10
2022-11-02T20:16:59.029Z,5.10
2022-11-02T20:19:38.594Z,5.00
2022-11-02T20:22:06.496Z,4.90
2022-11-02T20:24:34.646Z,4.90
2022-11-02T20:27:04.440Z,4.80
2022-11-02T20:29:32.559Z,4.80
2022-11-02T20:32:00.735Z,4.70
2022-11-02T20:34:31.271Z,4.80
2022-11-02T20:36:59.334Z,4.80
2022-11-02T20:39:27.258Z,4.80
2022-11-02T20:41:57.067Z,4.70
2022-11-02T20:44:25.352Z,4.60
2022-11-02T20:46:53.790Z,4.50
2022-11-02T20:49:44.285Z,4.40
2022-11-02T20:52:10.931Z,4.40
2022-11-02T20:54:39.241Z,4.40
2022-11-02T20:57:07.328Z,4.40
2022-11-02T20:59:35.344Z,4.30
2022-11-02T21:02:04.781Z,4.30
2022-11-02T21:04:32.688Z,4.20
2022-11-02T21:07:00.498Z,4.20
2022-11-02T21:09:31.761Z,4.10
2022-11-02T21:12:18.739Z,4.10
2022-11-02T21:14:46.797Z,4.00
2022-11-02T21:17:15.282Z,4.00
2022-11-02T21:19:43.525Z,4.10
2022-11-02T21:22:12.280Z,4.20
2022-11-02T21:24:40.095Z,4.20
2022-11-02T21:27:07.911Z,4.10
2022-11-02T21:29:36.355Z,4.10
2022-11-02T21:32:04.399Z,4.10
2022-11-02T21:34:31.146Z,4.00
2022-11-02T21:36:59.026Z,4.00
2022-11-02T21:39:26.824Z,3.90
2022-11-02T21:41:55.116Z,3.80
2022-11-02T21:44:24.964Z,3.80
2022-11-02T21:46:52.898Z,3.70
2022-11-02T21:49:21.071Z,3.80
2022-11-02T21:51:49.259Z,3.90
2022-11-02T21:54:17.408Z,3.90
2022-11-02T21:56:46.334Z,3.80
2022-11-02T21:59:14.692Z,3.70
2022-11-02T22:01:49.662Z,3.80
2022-11-02T22:04:28.329Z,3.80
2022-11-02T22:06:57.739Z,3.80
2022-11-02T22:09:26.288Z,3.70
2022-11-02T22:12:13.537Z,3.60
2022-11-02T22:14:43.933Z,3.60
2022-11-02T22:17:22.017Z,3.70
2022-11-02T22:19:56.586Z,3.60
2022-11-02T22:22:24.394Z,3.50
2022-11-02T22:24:52.199Z,3.50
2022-11-02T22:27:20.520Z,3.40
2022-11-02T22:29:48.705Z,3.40
2022-11-02T22:32:16.964Z,3.30
2022-11-02T22:34:43.956Z,3.30
2022-11-02T22:37:44.335Z,3.30
2022-11-02T22:40:11.208Z,3.40
2022-11-02T22:42:42.393Z,3.40
2022-11-02T22:45:12.260Z,3.30
2022-11-02T22:47:40.429Z,3.30
2022-11-02T22:50:08.450Z,3.40
2022-11-02T22:52:36.682Z,3.50
2022-11-02T22:55:05.045Z,3.40
2022-11-02T22:57:33.167Z,3.40
2022-11-02T23:00:01.139Z,3.50
2022-11-02T23:02:35.602Z,3.40
2022-11-02T23:05:05.768Z,3.30
2022-11-02T23:07:35.479Z,3.30
2022-11-02T23:10:23.312Z,3.30
2022-11-02T23:12:51.074Z,3.50
2022-11-02T23:15:19.146Z,3.50
2022-11-02T23:17:48.487Z,3.40
2022-11-02T23:20:16.592Z,3.30
2022-11-02T23:22:44.384Z,3.30
2022-11-02T23:25:12.730Z,3.30
2022-11-02T23:28:18.485Z,3.20
2022-11-02T23:31:05.749Z,3.20
2022-11-02T23:33:36.343Z,3.20
2022-11-02T23:36:13.221Z,3.10
2022-11-02T23:39:05.104Z,3.10
2022-11-02T23:41:35.793Z,3.20
2022-11-02T23:44:12.094Z,3.20
2022-11-02T23:46:44.239Z,3.20
2022-11-02T23:49:13.571Z,3.20
2022-11-02T23:52:00.403Z,3.20
2022-11-02T23:54:50.432Z,3.20
2022-11-02T23:57:19.408Z,3.30
2022-11-02T23:59:46.894Z,3.40
